Time;durP1;ratioP1;P1;durP2;ratioP2;P2;SDS_P1;SDS_P2;PMS_P1;PMS_P2;Temp;Humidity;BMP_temperature;BMP_pressure;BME280_temperature;BME280_humidity;BME280_pressure;Samples;Min_cycle;Max_cycle;Signal;HPM_P1;HPM_P2
2021/12/02 00:01:12;;;;;;;;;61.67;48.00;;;;;5.31;91.63;98229.13;5031745;28;45503;-74
2021/12/02 00:03:39;;;;;;;;;62.67;49.00;;;;;5.31;91.86;98222.16;5031790;28;45370;-76
2021/12/02 00:06:10;;;;;;;;;60.67;46.67;;;;;5.33;91.93;98214.25;5035249;28;45295;-76
2021/12/02 00:08:36;;;;;;;;;59.00;46.33;;;;;5.34;92.07;98201.16;5034783;28;45506;-74
2021/12/02 00:11:02;;;;;;;;;58.00;45.67;;;;;5.37;91.92;98206.25;5035114;28;45335;-76
2021/12/02 00:13:30;;;;;;;;;60.00;46.00;;;;;5.38;91.83;98202.72;5032745;28;47087;-76
2021/12/02 00:16:16;;;;;;;;;61.67;47.67;;;;;5.41;91.78;98204.38;5030638;28;45463;-76
2021/12/02 00:21:17;;;;;;;;;63.00;50.33;;;;;5.43;91.87;98189.50;5026865;28;45536;-74
2021/12/02 00:23:52;;;;;;;;;62.33;51.67;;;;;5.43;91.63;98185.13;5033445;28;46169;-75
2021/12/02 00:26:20;;;;;;;;;71.67;50.67;;;;;5.43;91.88;98177.28;5034859;28;45760;-76
2021/12/02 00:28:53;;;;;;;;;55.67;47.00;;;;;5.46;91.83;98181.56;5033843;28;45471;-75
2021/12/02 00:31:22;;;;;;;;;67.00;49.33;;;;;5.46;91.94;98171.97;5033974;28;45413;-76
2021/12/02 00:33:52;;;;;;;;;61.67;49.67;;;;;5.48;91.62;98169.31;5028107;28;46073;-76
2021/12/02 00:36:19;;;;;;;;;59.00;47.00;;;;;5.49;91.81;98168.41;5032322;28;45444;-76
2021/12/02 00:38:46;;;;;;;;;62.33;48.00;;;;;5.49;91.68;98156.19;5033244;28;45537;-76
2021/12/02 00:41:14;;;;;;;;;65.33;50.00;;;;;5.51;91.71;98151.75;5032639;28;45407;-76
2021/12/02 00:43:41;;;;;;;;;65.33;49.67;;;;;5.53;91.94;98151.72;5031237;28;46534;-74
2021/12/02 00:46:10;;;;;;;;;66.67;50.67;;;;;5.55;91.75;98150.72;5034289;28;45535;-74
2021/12/02 00:48:37;;;;;;;;;61.67;48.33;;;;;5.56;91.55;98156.81;5030058;28;45566;-74
2021/12/02 00:51:06;;;;;;;;;61.67;48.33;;;;;5.56;91.53;98160.28;5026536;28;45631;-74
2021/12/02 00:53:34;;;;;;;;;62.67;50.00;;;;;5.56;91.68;98152.44;5032362;28;45617;-74
2021/12/02 00:56:05;;;;;;;;;67.67;46.33;;;;;5.55;91.50;98139.41;5033012;28;45569;-74
2021/12/02 00:58:32;;;;;;;;;64.33;50.67;;;;;5.56;91.69;98136.75;5047768;28;45498;-74
2021/12/02 01:01:00;;;;;;;;;64.67;49.67;;;;;5.57;92.05;98142.81;5032723;28;45559;-74
2021/12/02 01:03:28;;;;;;;;;57.67;47.00;;;;;5.57;91.58;98155.91;5032503;28;46679;-74
2021/12/02 01:05:54;;;;;;;;;55.67;42.33;;;;;5.60;91.74;98145.34;5033903;28;45451;-74
2021/12/02 01:08:20;;;;;;;;;65.33;49.00;;;;;5.59;91.62;98139.25;5032436;28;45467;-74
2021/12/02 01:10:46;;;;;;;;;62.33;47.33;;;;;5.59;91.50;98134.03;5033779;28;45457;-74
2021/12/02 01:13:12;;;;;;;;;61.33;47.00;;;;;5.59;91.51;98143.63;5032207;28;45494;-74
2021/12/02 01:15:38;;;;;;;;;65.67;49.00;;;;;5.59;91.13;98146.25;5032862;28;45425;-74
2021/12/02 01:18:03;;;;;;;;;68.67;51.00;;;;;5.59;91.14;98151.47;5033338;28;45615;-74
2021/12/02 01:20:31;;;;;;;;;65.00;48.67;;;;;5.57;90.82;98148.06;5032456;28;45418;-74
2021/12/02 01:22:59;;;;;;;;;55.00;47.33;;;;;5.55;90.98;98136.78;5033656;28;45506;-74
2021/12/02 01:25:28;;;;;;;;;66.33;50.33;;;;;5.56;91.09;98141.97;5026519;28;45472;-74
2021/12/02 01:27:55;;;;;;;;;64.00;50.00;;;;;5.55;91.10;98135.03;5033478;28;45462;-74
2021/12/02 01:30:20;;;;;;;;;63.33;51.00;;;;;5.55;90.91;98137.66;5033818;28;45666;-74
2021/12/02 01:32:48;;;;;;;;;63.00;48.33;;;;;5.53;91.05;98142.06;5040382;28;46147;-74
2021/12/02 01:35:19;;;;;;;;;59.00;46.67;;;;;5.52;90.76;98140.41;5038249;28;45596;-74
2021/12/02 01:37:45;;;;;;;;;59.67;47.00;;;;;5.51;91.21;98143.91;5040143;28;45465;-74
2021/12/02 01:40:11;;;;;;;;;58.00;45.33;;;;;5.50;90.83;98134.38;5035331;28;45625;-74
2021/12/02 01:42:39;;;;;;;;;63.33;47.67;;;;;5.52;91.09;98134.31;5037348;28;48124;-74
2021/12/02 01:45:05;;;;;;;;;61.00;47.67;;;;;5.52;90.76;98135.16;5032765;28;45650;-74
2021/12/02 01:47:32;;;;;;;;;61.67;48.33;;;;;5.52;90.78;98131.69;5040474;28;45497;-74
2021/12/02 01:50:03;;;;;;;;;57.33;46.00;;;;;5.50;90.65;98125.66;5037003;28;45349;-74
2021/12/02 01:52:31;;;;;;;;;59.33;45.67;;;;;5.49;90.62;98131.81;5038485;28;47369;-74
2021/12/02 01:55:05;;;;;;;;;56.33;45.33;;;;;5.48;90.72;98137.94;5034230;28;45365;-74
2021/12/02 01:57:33;;;;;;;;;54.67;42.67;;;;;5.49;90.74;98135.28;5039670;28;45457;-74
2021/12/02 02:00:09;;;;;;;;;58.00;43.67;;;;;5.49;91.05;98135.28;5034376;28;45533;-75
2021/12/02 02:02:39;;;;;;;;;60.00;48.00;;;;;5.49;90.87;98135.28;5042376;28;47004;-75
2021/12/02 02:05:11;;;;;;;;;62.67;47.67;;;;;5.49;91.12;98140.50;5029582;28;45565;-76
2021/12/02 02:07:47;;;;;;;;;59.67;46.33;;;;;5.47;90.81;98126.63;5036119;28;45306;-76
2021/12/02 02:10:13;;;;;;;;;59.33;47.00;;;;;5.46;91.07;98117.09;5036705;28;45412;-75
2021/12/02 02:12:38;;;;;;;;;66.67;52.67;;;;;5.47;90.95;98120.53;5038734;28;46509;-75
2021/12/02 02:15:05;;;;;;;;;62.33;50.00;;;;;5.45;90.68;98125.81;5037942;28;45381;-76
2021/12/02 02:17:36;;;;;;;;;67.33;50.33;;;;;5.44;90.68;98118.03;5047786;28;45463;-76
2021/12/02 02:20:04;;;;;;;;;63.00;50.00;;;;;5.41;90.78;98116.38;5033995;28;45449;-76
2021/12/02 02:22:30;;;;;;;;;59.67;47.00;;;;;5.41;90.90;98115.53;5039538;28;46122;-76
2021/12/02 02:24:55;;;;;;;;;62.33;46.67;;;;;5.39;90.75;98106.88;5036678;28;45550;-75
2021/12/02 02:27:21;;;;;;;;;60.33;48.67;;;;;5.39;91.27;98104.28;5037060;28;45612;-75
2021/12/02 02:29:47;;;;;;;;;63.00;50.33;;;;;5.38;91.08;98099.94;5038009;28;45630;-76
2021/12/02 02:32:12;;;;;;;;;65.00;49.67;;;;;5.38;91.24;98094.72;5038164;28;46713;-76
2021/12/02 02:34:38;;;;;;;;;63.33;48.67;;;;;5.39;91.22;98094.66;5038284;28;45536;-76
2021/12/02 02:37:05;;;;;;;;;65.67;48.67;;;;;5.41;91.06;98094.63;5039723;28;45681;-76
2021/12/02 02:39:33;;;;;;;;;64.00;51.33;;;;;5.41;90.54;98085.03;5034710;28;45440;-76
2021/12/02 02:42:01;;;;;;;;;67.00;50.00;;;;;5.41;91.17;98081.56;5036644;28;45379;-76
2021/12/02 02:44:28;;;;;;;;;65.67;48.67;;;;;5.40;90.99;98078.09;5031491;28;45526;-76
2021/12/02 02:46:54;;;;;;;;;63.67;49.33;;;;;5.41;90.84;98074.56;5034084;28;45452;-76
2021/12/02 02:49:20;;;;;;;;;60.00;48.00;;;;;5.43;90.67;98077.97;5035963;28;45357;-76
2021/12/02 02:51:46;;;;;;;;;64.00;49.67;;;;;5.41;90.77;98077.19;5035145;28;45403;-76
2021/12/02 02:54:14;;;;;;;;;66.67;52.67;;;;;5.43;90.76;98069.28;5034904;28;45515;-76
2021/12/02 02:56:49;;;;;;;;;72.00;52.00;;;;;5.43;91.02;98072.75;5036842;28;45459;-76
2021/12/02 03:11:51;;;;;;;;;64.67;52.00;;;;;5.48;91.02;98068.22;5035977;28;45470;-76
2021/12/02 03:14:22;;;;;;;;;61.33;49.00;;;;;5.47;90.84;98063.91;5033074;28;45591;-76
2021/12/02 03:16:47;;;;;;;;;71.33;53.67;;;;;5.48;91.14;98060.38;5029756;28;45460;-76
2021/12/02 03:19:15;;;;;;;;;64.33;49.67;;;;;5.48;91.09;98054.28;5035344;28;45400;-76
2021/12/02 03:21:42;;;;;;;;;68.33;50.00;;;;;5.48;91.15;98049.91;5035230;28;46509;-76
2021/12/02 03:24:08;;;;;;;;;64.00;50.00;;;;;5.48;90.99;98049.06;5033719;28;45483;-75
2021/12/02 03:26:34;;;;;;;;;58.67;47.00;;;;;5.47;90.91;98047.38;5036000;28;45381;-75
2021/12/02 03:28:59;;;;;;;;;69.00;49.00;;;;;5.46;91.13;98054.34;5035826;28;45727;-75
2021/12/02 03:31:25;;;;;;;;;60.33;46.00;;;;;5.48;90.92;98047.31;5035578;28;46007;-76
2021/12/02 03:33:51;;;;;;;;;53.33;37.33;;;;;5.48;91.06;98043.84;5030726;28;45465;-75
2021/12/02 03:36:18;;;;;;;;;65.33;50.00;;;;;5.49;90.99;98049.00;5029590;28;45374;-75
2021/12/02 03:38:44;;;;;;;;;65.67;47.67;;;;;5.50;91.11;98053.34;5045905;28;45568;-75
2021/12/02 03:41:10;;;;;;;;;61.33;48.33;;;;;5.52;91.05;98058.50;5031297;28;46537;-75
2021/12/02 03:43:41;;;;;;;;;66.00;49.33;;;;;5.52;91.06;98056.75;5035170;28;45832;-75
2021/12/02 03:46:09;;;;;;;;;58.67;47.33;;;;;5.55;91.00;98061.84;5035779;28;45226;-76
2021/12/02 03:48:36;;;;;;;;;66.67;49.33;;;;;5.56;91.10;98055.69;5031779;28;45578;-76
2021/12/02 03:51:02;;;;;;;;;63.00;48.67;;;;;5.57;90.99;98053.94;5030512;28;46163;-76
2021/12/02 03:53:28;;;;;;;;;63.00;51.33;;;;;5.56;91.02;98055.69;5035324;28;45452;-76
2021/12/02 03:55:53;;;;;;;;;62.67;48.33;;;;;5.58;91.06;98064.34;5035272;28;45421;-76
2021/12/02 03:58:19;;;;;;;;;63.33;49.67;;;;;5.58;91.06;98060.88;5035514;28;45481;-76
2021/12/02 04:00:44;;;;;;;;;68.00;51.00;;;;;5.57;90.60;98060.03;5035527;28;45680;-75
2021/12/02 04:03:09;;;;;;;;;66.67;52.33;;;;;5.56;90.71;98070.53;5035187;28;45447;-76
2021/12/02 04:05:35;;;;;;;;;60.33;45.67;;;;;5.55;90.49;98066.22;5033085;28;45796;-75
2021/12/02 04:08:01;;;;;;;;;62.33;49.67;;;;;5.55;90.54;98068.81;5023390;28;45576;-75
2021/12/02 04:10:26;;;;;;;;;65.33;52.33;;;;;5.55;90.77;98067.06;5032002;28;46504;-75
2021/12/02 04:13:06;;;;;;;;;59.67;48.00;;;;;5.55;90.77;98067.06;5034908;28;45680;-75
2021/12/02 04:15:39;;;;;;;;;59.33;49.00;;;;;5.56;90.45;98060.94;5034688;28;45453;-75
2021/12/02 04:18:05;;;;;;;;;56.33;43.33;;;;;5.58;90.54;98063.50;5034560;28;45407;-75
2021/12/02 04:20:30;;;;;;;;;57.67;44.33;;;;;5.59;90.27;98068.66;5034768;28;45619;-74
2021/12/02 04:22:56;;;;;;;;;57.33;43.00;;;;;5.56;89.76;98060.06;5033594;28;45443;-75
2021/12/02 04:25:23;;;;;;;;;55.67;44.67;;;;;5.53;90.25;98066.25;5033570;28;45616;-74
2021/12/02 04:27:50;;;;;;;;;53.67;42.00;;;;;5.54;90.13;98060.13;5035307;28;45485;-74
2021/12/02 04:30:20;;;;;;;;;50.00;39.00;;;;;5.56;90.34;98065.31;5031840;28;47240;-75
2021/12/02 04:32:46;;;;;;;;;45.00;39.67;;;;;5.55;89.75;98064.44;5034598;28;45397;-75
2021/12/02 04:35:12;;;;;;;;;54.67;46.00;;;;;5.54;90.29;98067.97;5027804;28;45436;-75
2021/12/02 04:37:39;;;;;;;;;54.67;41.67;;;;;5.53;90.28;98065.44;5034713;28;45437;-75
2021/12/02 04:40:06;;;;;;;;;50.67;41.00;;;;;5.55;89.95;98068.81;5033082;28;46500;-75
2021/12/02 04:42:31;;;;;;;;;45.00;39.33;;;;;5.54;89.85;98062.75;5034481;28;45440;-74
2021/12/02 04:44:57;;;;;;;;;47.00;38.33;;;;;5.53;89.86;98055.00;5029343;28;45260;-75
2021/12/02 04:47:22;;;;;;;;;53.67;43.67;;;;;5.53;89.97;98055.00;5050192;28;45387;-75
2021/12/02 04:49:48;;;;;;;;;49.33;40.00;;;;;5.53;89.77;98052.38;5027956;28;45640;-75
2021/12/02 04:52:13;;;;;;;;;39.67;36.00;;;;;5.53;89.34;98050.59;5034351;28;45405;-75
2021/12/02 04:54:39;;;;;;;;;39.33;35.00;;;;;5.52;89.50;98048.91;5047692;28;45765;-75
2021/12/02 04:57:05;;;;;;;;;47.33;39.00;;;;;5.52;89.82;98055.91;5034487;28;45476;-75
2021/12/02 04:59:30;;;;;;;;;32.00;27.00;;;;;5.49;89.70;98043.78;5033438;28;45594;-75
2021/12/02 05:01:55;;;;;;;;;36.67;31.33;;;;;5.48;89.09;98047.31;5032652;28;45457;-75
2021/12/02 05:04:21;;;;;;;;;33.33;31.00;;;;;5.45;89.55;98051.78;5029960;28;45441;-75
2021/12/02 05:06:46;;;;;;;;;18.00;10.33;;;;;5.40;87.86;98049.34;5032823;28;45372;-75
2021/12/02 05:09:12;;;;;;;;;18.67;15.33;;;;;5.36;87.74;98057.38;5033884;28;45617;-75
2021/12/02 05:11:38;;;;;;;;;14.67;13.67;;;;;5.32;87.36;98051.41;5034454;28;45413;-75
2021/12/02 05:14:04;;;;;;;;;16.00;13.33;;;;;5.29;87.39;98050.66;5032953;28;45495;-75
2021/12/02 05:16:30;;;;;;;;;15.67;15.00;;;;;5.26;88.16;98057.69;5034231;28;45475;-75
2021/12/02 05:18:55;;;;;;;;;21.00;15.33;;;;;5.26;87.90;98051.59;5030584;28;45579;-75
2021/12/02 05:21:21;;;;;;;;;18.67;16.33;;;;;5.25;87.99;98053.34;5021246;28;46045;-75
2021/12/02 05:23:51;;;;;;;;;18.33;16.67;;;;;5.22;88.11;98047.38;5032653;28;45287;-75
2021/12/02 05:26:16;;;;;;;;;12.33;9.67;;;;;5.18;88.45;98053.66;5032671;28;45380;-75
2021/12/02 05:28:42;;;;;;;;;24.33;20.33;;;;;5.13;88.91;98064.25;5029231;28;46212;-75
2021/12/02 05:31:07;;;;;;;;;30.67;27.00;;;;;5.12;89.14;98062.56;5033547;28;45477;-75
2021/12/02 05:33:32;;;;;;;;;32.67;30.00;;;;;5.09;89.12;98065.25;5031684;28;45488;-75
2021/12/02 05:35:58;;;;;;;;;26.33;24.67;;;;;5.09;89.25;98072.25;5033308;28;45423;-75
2021/12/02 05:38:24;;;;;;;;;34.00;30.00;;;;;5.08;89.29;98070.53;5033027;28;46431;-75
2021/12/02 05:40:49;;;;;;;;;32.33;25.67;;;;;5.05;89.26;98068.03;5033775;28;45487;-75
2021/12/02 05:43:14;;;;;;;;;30.00;24.00;;;;;5.06;89.13;98070.59;5033999;28;45425;-75
2021/12/02 05:45:40;;;;;;;;;26.33;18.67;;;;;5.06;88.70;98070.59;5025694;28;45417;-75
2021/12/02 05:48:05;;;;;;;;;34.33;25.00;;;;;5.08;89.33;98060.09;5030965;28;46338;-75
2021/12/02 05:50:31;;;;;;;;;37.33;34.00;;;;;5.08;89.39;98055.72;5029900;28;45405;-75
2021/12/02 05:52:56;;;;;;;;;36.67;31.33;;;;;5.08;89.67;98054.88;5032913;28;45360;-75
2021/12/02 05:55:22;;;;;;;;;35.67;30.33;;;;;5.08;89.90;98053.09;5027679;28;45491;-75
2021/12/02 05:57:47;;;;;;;;;44.33;37.67;;;;;5.07;89.93;98042.72;5033293;28;45395;-74
2021/12/02 06:00:13;;;;;;;;;47.67;36.33;;;;;5.08;90.08;98045.28;5029281;28;45444;-75
2021/12/02 06:02:39;;;;;;;;;37.00;31.67;;;;;5.12;90.26;98044.25;5031187;28;45354;-75
2021/12/02 06:05:06;;;;;;;;;47.00;41.00;;;;;5.17;90.36;98044.09;5027503;28;45548;-75
2021/12/02 06:07:32;;;;;;;;;38.00;30.67;;;;;5.19;89.83;98052.75;5032522;28;45519;-75
2021/12/02 06:09:58;;;;;;;;;39.33;33.00;;;;;5.21;89.85;98048.28;5031902;28;45487;-75
2021/12/02 06:12:23;;;;;;;;;61.67;43.00;;;;;5.21;90.25;98048.28;5033245;28;45415;-75
2021/12/02 06:14:49;;;;;;;;;55.67;40.33;;;;;5.23;90.29;98054.31;5030712;28;45524;-75
2021/12/02 06:17:14;;;;;;;;;46.33;38.00;;;;;5.24;90.19;98048.19;5033879;28;45534;-75
2021/12/02 06:19:40;;;;;;;;;53.67;43.00;;;;;5.25;90.37;98058.59;5036347;28;45364;-75
2021/12/02 06:22:08;;;;;;;;;49.67;40.33;;;;;5.28;90.57;98057.63;5035986;28;45444;-75
2021/12/02 06:24:43;;;;;;;;;56.67;43.00;;;;;5.30;90.73;98047.97;5035619;28;45508;-75
2021/12/02 06:27:09;;;;;;;;;59.67;44.33;;;;;5.34;90.31;98048.72;5033727;28;47364;-75
2021/12/02 06:29:37;;;;;;;;;63.00;47.33;;;;;5.37;90.37;98051.19;5035621;28;45496;-75
2021/12/02 06:32:04;;;;;;;;;57.33;42.33;;;;;5.38;90.55;98053.75;5035755;28;45506;-75
2021/12/02 06:34:30;;;;;;;;;58.67;46.33;;;;;5.41;90.80;98058.03;5029601;28;45409;-75
2021/12/02 06:36:56;;;;;;;;;61.00;45.67;;;;;5.43;90.96;98058.84;5035318;28;45405;-75
2021/12/02 06:39:21;;;;;;;;;60.00;46.00;;;;;5.43;91.11;98044.00;5035050;28;45378;-75
2021/12/02 06:41:46;;;;;;;;;54.33;43.33;;;;;5.47;90.87;98044.75;5035574;28;46023;-75
2021/12/02 06:44:13;;;;;;;;;51.33;41.67;;;;;5.50;91.03;98045.50;5029268;28;45586;-75
2021/12/02 06:46:38;;;;;;;;;51.50;43.00;;;;;5.52;90.95;98045.44;5034836;28;46294;-75
2021/12/02 06:49:04;;;;;;;;;49.00;38.67;;;;;5.52;90.95;98048.06;5029670;28;45554;-75
2021/12/02 06:51:30;;;;;;;;;45.33;35.33;;;;;5.52;90.99;98045.44;5035080;28;45359;-75
2021/12/02 06:53:56;;;;;;;;;50.33;40.67;;;;;5.55;90.85;98040.94;5032624;28;45352;-75
2021/12/02 06:56:21;;;;;;;;;35.67;18.67;;;;;5.53;90.66;98045.34;5034775;28;46535;-75
2021/12/02 06:58:47;;;;;;;;;34.67;29.00;;;;;5.52;90.71;98042.81;5032366;28;45472;-75
2021/12/02 07:01:12;;;;;;;;;39.33;36.33;;;;;5.52;90.91;98043.69;5032373;28;45407;-75
2021/12/02 07:03:37;;;;;;;;;45.00;37.67;;;;;5.55;90.82;98046.16;5032267;28;45465;-75
2021/12/02 07:06:03;;;;;;;;;41.00;33.67;;;;;5.56;90.76;98050.47;5034134;28;45660;-75
2021/12/02 07:08:30;;;;;;;;;41.33;34.33;;;;;5.57;90.18;98040.88;5035354;28;45426;-75
2021/12/02 07:10:58;;;;;;;;;39.67;35.00;;;;;5.58;90.54;98046.03;5035391;28;45416;-75
2021/12/02 07:13:23;;;;;;;;;34.00;33.00;;;;;5.59;90.70;98046.91;5033334;28;45549;-75
2021/12/02 07:15:53;;;;;;;;;41.67;36.33;;;;;5.61;90.53;98051.16;5034248;28;46420;-75
2021/12/02 07:18:19;;;;;;;;;42.00;35.67;;;;;5.60;90.42;98056.44;5033830;28;45578;-75
2021/12/02 07:20:48;;;;;;;;;35.33;30.67;;;;;5.60;90.34;98059.91;5034880;28;45399;-74
2021/12/02 07:23:16;;;;;;;;;44.33;35.67;;;;;5.61;90.23;98061.63;5033645;28;45389;-74
2021/12/02 07:25:42;;;;;;;;;37.33;35.00;;;;;5.63;90.10;98066.78;5023528;28;46364;-74
2021/12/02 07:28:14;;;;;;;;;36.00;31.00;;;;;5.63;90.21;98066.78;5034009;28;45424;-75
2021/12/02 07:30:40;;;;;;;;;36.33;33.67;;;;;5.63;90.54;98069.41;5034481;28;45492;-74
2021/12/02 07:33:10;;;;;;;;;35.67;32.00;;;;;5.63;90.21;98071.16;5047124;28;45505;-74
2021/12/02 07:35:36;;;;;;;;;31.33;30.00;;;;;5.63;90.29;98073.78;5029890;28;45503;-74
2021/12/02 07:38:03;;;;;;;;;32.33;29.67;;;;;5.61;90.22;98079.06;5034465;28;45314;-74
2021/12/02 07:40:36;;;;;;;;;34.00;33.67;;;;;5.63;90.02;98089.47;5024192;28;45436;-74
2021/12/02 07:43:02;;;;;;;;;43.00;37.67;;;;;5.61;90.04;98095.63;5034440;28;45412;-74
2021/12/02 07:45:32;;;;;;;;;38.67;30.33;;;;;5.63;89.99;98102.53;5037801;28;46399;-74
2021/12/02 07:47:58;;;;;;;;;41.33;37.67;;;;;5.63;90.16;98098.16;5033788;28;45432;-74
2021/12/02 07:50:23;;;;;;;;;50.00;39.00;;;;;5.66;89.99;98103.28;5030057;28;45475;-74
2021/12/02 07:52:51;;;;;;;;;41.67;37.67;;;;;5.68;90.11;98098.88;5033153;28;45515;-74
2021/12/02 07:55:18;;;;;;;;;45.67;38.33;;;;;5.72;90.25;98100.44;5032462;28;45444;-74
2021/12/02 07:57:45;;;;;;;;;39.00;34.00;;;;;5.74;89.69;98101.22;5033176;28;45452;-77
2021/12/02 08:00:15;;;;;;;;;51.00;40.67;;;;;5.76;89.71;98094.19;5028636;28;45788;-73
2021/12/02 08:02:45;;;;;;;;;37.67;36.67;;;;;5.78;89.72;98101.97;5033727;28;45543;-75
2021/12/02 08:05:12;;;;;;;;;51.67;39.00;;;;;5.81;89.53;98092.25;5032350;28;46277;-74
2021/12/02 08:07:39;;;;;;;;;47.67;38.67;;;;;5.85;89.72;98104.31;5033165;28;45491;-73
2021/12/02 08:10:07;;;;;;;;;40.67;36.67;;;;;5.89;89.66;98092.00;5030978;28;45512;-74
2021/12/02 08:12:34;;;;;;;;;42.33;35.33;;;;;5.94;89.30;98092.69;5034075;28;45388;-73
2021/12/02 08:15:01;;;;;;;;;41.33;35.00;;;;;5.98;89.40;98098.66;5025508;28;46012;-75
2021/12/02 08:17:27;;;;;;;;;33.67;29.33;;;;;6.00;89.95;98097.69;5032485;28;45412;-73
2021/12/02 08:19:52;;;;;;;;;45.00;38.00;;;;;6.03;89.36;98094.09;5031934;28;45495;-75
2021/12/02 08:22:18;;;;;;;;;50.00;39.33;;;;;6.05;89.37;98094.88;5019392;28;45495;-74
2021/12/02 08:24:43;;;;;;;;;49.67;38.67;;;;;6.08;89.27;98089.53;5043303;28;48033;-73
2021/12/02 08:27:08;;;;;;;;;44.67;38.00;;;;;6.11;89.22;98090.28;5032463;28;45472;-73
2021/12/02 08:29:34;;;;;;;;;46.00;38.67;;;;;6.14;89.01;98097.16;5026074;28;45642;-74
2021/12/02 08:32:01;;;;;;;;;47.00;39.00;;;;;6.16;88.63;98098.81;5033961;28;45491;-72
2021/12/02 08:34:27;;;;;;;;;53.00;36.67;;;;;6.19;88.73;98101.31;5031397;28;46353;-73
2021/12/02 08:36:54;;;;;;;;;37.00;35.00;;;;;6.20;88.60;98102.97;5066203;28;45342;-73
2021/12/02 08:39:40;;;;;;;;;42.33;36.00;;;;;6.25;88.60;98102.81;5065218;28;45423;-73
2021/12/02 08:42:05;;;;;;;;;45.00;38.33;;;;;6.29;88.87;98096.56;5033478;28;45449;-73
2021/12/02 08:44:34;;;;;;;;;46.33;39.33;;;;;6.35;88.44;98105.94;5032053;28;46035;-73
2021/12/02 08:46:59;;;;;;;;;39.67;35.00;;;;;6.40;88.21;98109.19;5034121;28;45443;-74
2021/12/02 08:49:25;;;;;;;;;44.33;35.00;;;;;6.46;88.25;98104.59;5027212;28;45570;-74
2021/12/02 08:51:51;;;;;;;;;33.00;30.33;;;;;6.55;87.92;98113.81;5032025;28;45452;-74
2021/12/02 08:54:17;;;;;;;;;44.33;37.00;;;;;6.62;87.65;98117.91;5030801;28;45530;-73
2021/12/02 08:56:43;;;;;;;;;46.33;36.67;;;;;6.68;87.43;98116.84;5030923;28;45362;-73
2021/12/02 08:59:09;;;;;;;;;39.00;36.00;;;;;6.73;87.30;98118.31;5029687;28;45543;-73
2021/12/02 09:01:34;;;;;;;;;36.00;34.33;;;;;6.78;86.53;98116.38;5034460;28;45338;-74
2021/12/02 09:04:04;;;;;;;;;35.33;28.67;;;;;6.83;86.15;98118.81;5032887;28;45379;-73
2021/12/02 09:06:31;;;;;;;;;28.00;28.00;;;;;6.89;85.96;98110.69;5033838;28;45408;-74
2021/12/02 09:08:58;;;;;;;;;29.67;29.00;;;;;6.90;86.07;98112.38;5033421;28;45368;-74
2021/12/02 09:11:25;;;;;;;;;38.00;32.67;;;;;6.93;86.01;98120.13;5034166;28;45156;-73
2021/12/02 09:13:56;;;;;;;;;36.00;32.67;;;;;6.96;85.75;98120.00;5029093;28;46399;-73
2021/12/02 09:16:21;;;;;;;;;34.67;31.33;;;;;6.99;86.11;98119.88;5033985;28;45411;-74
2021/12/02 09:18:47;;;;;;;;;38.00;34.33;;;;;7.00;85.48;98116.34;5033536;28;45687;-73
2021/12/02 09:21:12;;;;;;;;;41.67;37.33;;;;;7.02;85.75;98117.16;5033280;28;45369;-73
2021/12/02 09:23:38;;;;;;;;;42.00;36.00;;;;;7.09;85.35;98128.19;5047715;28;47031;-73
2021/12/02 09:26:03;;;;;;;;;37.67;34.00;;;;;7.14;84.96;98126.25;5028962;28;45430;-73
2021/12/02 09:28:29;;;;;;;;;39.00;33.67;;;;;7.17;84.70;98140.09;5030873;28;45355;-73
2021/12/02 09:30:54;;;;;;;;;34.00;29.00;;;;;7.18;84.39;98136.56;5032298;28;45321;-74
2021/12/02 09:33:20;;;;;;;;;36.67;28.67;;;;;7.18;84.52;98122.59;5032148;28;45506;-73
2021/12/02 09:35:45;;;;;;;;;30.00;29.33;;;;;7.18;84.29;98125.22;5026139;28;45385;-73
2021/12/02 09:38:11;;;;;;;;;37.33;33.00;;;;;7.18;84.39;98126.06;5048611;28;45369;-73
2021/12/02 09:40:39;;;;;;;;;39.33;35.33;;;;;7.22;84.53;98127.63;5024685;28;45380;-73
2021/12/02 09:43:05;;;;;;;;;41.67;32.67;;;;;7.27;84.58;98125.66;5033345;28;45436;-73
2021/12/02 09:45:30;;;;;;;;;37.67;31.67;;;;;7.33;83.49;98135.03;5029361;28;45540;-73
2021/12/02 09:47:56;;;;;;;;;40.00;34.33;;;;;7.34;83.72;98139.38;5033289;28;45413;-73
2021/12/02 09:51:04;;;;;;;;;30.00;28.00;;;;;7.37;83.32;98139.25;5025295;28;45452;-73
2021/12/02 09:53:24;;;;;;;;;26.67;19.67;;;;;7.30;80.85;98141.25;5033266;28;45536;-74
2021/12/02 09:58:34;;;;;;;;;30.67;25.67;;;;;7.09;83.58;98134.28;5035207;28;45325;-73
2021/12/02 10:01:07;;;;;;;;;35.67;33.33;;;;;7.08;84.74;98139.59;5033160;28;45555;-73
2021/12/02 10:03:39;;;;;;;;;37.33;35.00;;;;;7.08;84.93;98142.22;5050849;28;46735;-74
2021/12/02 10:06:17;;;;;;;;;46.67;37.67;;;;;7.14;85.02;98136.72;5035045;28;45479;-73
2021/12/02 10:09:00;;;;;;;;;42.33;36.00;;;;;7.23;85.00;98136.34;5035310;28;45499;-73
2021/12/02 10:11:27;;;;;;;;;40.00;36.00;;;;;7.26;84.54;98146.69;5026633;28;45542;-73
2021/12/02 10:14:00;;;;;;;;;46.67;37.00;;;;;7.29;84.60;98131.69;5033319;28;46249;-73
2021/12/02 10:16:29;;;;;;;;;39.33;35.00;;;;;7.33;84.91;98121.94;5036310;28;45446;-73
2021/12/02 10:21:38;;;;;;;;;56.67;40.67;;;;;7.50;84.53;98111.56;5030170;28;45408;-74
2021/12/02 10:24:09;;;;;;;;;20.33;17.33;;;;;7.66;84.89;98106.50;5046167;28;46890;-73
2021/12/02 10:26:45;;;;;;;;;43.33;35.33;;;;;7.78;84.10;98108.56;5031415;28;45361;-73
2021/12/02 10:29:19;;;;;;;;;38.67;34.00;;;;;7.90;83.60;98104.50;5035512;28;45341;-73
2021/12/02 10:31:47;;;;;;;;;15.67;12.67;;;;;7.96;79.72;98089.34;5036067;28;45561;-74
2021/12/02 10:34:16;;;;;;;;;7.00;5.50;;;;;7.85;80.00;98099.50;5029679;28;47547;-73
2021/12/02 10:36:45;;;;;;;;;5.25;4.00;;;;;7.70;78.61;98087.06;5030769;28;45397;-74
2021/12/02 10:39:18;;;;;;;;;3.00;3.00;;;;;7.55;75.04;98088.59;5025053;28;45369;-73
2021/12/02 10:41:46;;;;;;;;;8.25;5.75;;;;;7.42;77.47;98074.31;5035993;28;45362;-73
2021/12/02 10:44:17;;;;;;;;;4.00;4.00;;;;;7.30;78.01;98080.13;5031454;28;45528;-73
2021/12/02 10:47:00;;;;;;;;;8.75;8.00;;;;;7.21;78.15;98062.16;5060176;28;45396;-74
2021/12/02 10:49:26;;;;;;;;;3.25;3.25;;;;;7.12;78.31;98076.53;5035750;28;45449;-74
2021/12/02 10:51:54;;;;;;;;;6.50;5.50;;;;;7.06;79.47;98068.91;5035490;28;45340;-74
2021/12/02 10:54:28;;;;;;;;;7.50;7.50;;;;;6.99;79.65;98065.72;5030420;28;46271;-74
2021/12/02 10:57:00;;;;;;;;;4.00;4.00;;;;;6.93;80.40;98081.69;5035967;28;45385;-74
2021/12/02 10:59:39;;;;;;;;;6.25;6.25;;;;;6.83;80.40;98088.25;5034076;28;45627;-74
2021/12/02 11:02:29;;;;;;;;;5.00;5.00;;;;;6.70;80.18;98084.44;5036021;28;45400;-74
2021/12/02 11:05:02;;;;;;;;;6.33;4.67;;;;;6.57;81.44;98076.19;5034382;28;47426;-74
2021/12/02 11:07:33;;;;;;;;;9.33;8.67;;;;;6.43;82.63;98064.59;5050981;28;45751;-75
2021/12/02 11:10:01;;;;;;;;;6.67;6.67;;;;;6.32;83.08;98062.41;5035713;28;45316;-75
2021/12/02 11:12:33;;;;;;;;;4.67;4.67;;;;;6.23;82.46;98068.00;5035884;28;45471;-75
2021/12/02 11:15:02;;;;;;;;;7.33;4.00;;;;;6.23;82.52;98068.84;5035166;28;45537;-75
2021/12/02 11:17:30;;;;;;;;;3.33;3.00;;;;;6.25;82.74;98058.31;5035448;28;45440;-75
2021/12/02 11:19:58;;;;;;;;;8.00;6.75;;;;;6.27;82.65;98051.25;5043314;28;45479;-75
2021/12/02 11:22:27;;;;;;;;;5.25;5.25;;;;;6.29;82.19;98054.69;5033188;28;45556;-76
2021/12/02 11:24:52;;;;;;;;;8.00;5.33;;;;;6.24;81.58;98073.16;5028411;28;46990;-73
2021/12/02 11:27:36;;;;;;;;;8.75;8.00;;;;;6.18;82.06;98056.88;5030176;28;45592;-74
2021/12/02 11:30:04;;;;;;;;;9.00;8.00;;;;;6.14;82.50;98052.66;5030273;28;45294;-74
2021/12/02 11:33:01;;;;;;;;;10.67;8.33;;;;;6.11;82.40;98058.88;5035342;28;45427;-75
2021/12/02 11:35:40;;;;;;;;;7.00;5.00;;;;;6.15;82.02;98059.59;5018331;28;46239;-75
2021/12/02 11:38:19;;;;;;;;;5.67;5.67;;;;;6.21;82.27;98067.19;5035292;28;45536;-76
2021/12/02 11:40:50;;;;;;;;;7.00;7.00;;;;;6.25;82.46;98053.09;5027578;28;45468;-75
2021/12/02 11:43:27;;;;;;;;;29.00;26.33;;;;;6.28;84.13;98040.75;5034219;28;45458;-75
2021/12/02 11:45:55;;;;;;;;;31.00;25.33;;;;;6.40;85.25;98046.38;5033032;28;45529;-76
2021/12/02 11:48:28;;;;;;;;;32.33;30.67;;;;;6.55;86.16;98046.59;5034709;28;45524;-76
2021/12/02 11:50:59;;;;;;;;;33.33;29.00;;;;;6.69;85.60;98037.34;5029601;28;45381;-76